Archival Weather

Chicago O'Hare International

Chicago, Illinois (KORD)

Report from: Saturday, March 5, 2022 7:51 AM CST
Current time: Saturday, February 4, 2023 11:06 PM CST

Current weather
Weather history
Weather forecast

Temperature6.7°C (44.1°F)
Wind chill3.2°C (37.7°F)
Dew point-1.7°C (28.9°F)
Winds 11 kts (5.7 m/s, 12.7 mph) South-Southeast (160°)
Visibility10 mi. (16.1 km)
Clouds Few clouds 15,000 ft. (4,572 m)
Scattered clouds 25,000 ft. (7,620 m)
Altimeter29.93 in.Hg (1014 mB)
Relative humidity55 %
Density altitude-925 ft. (-282 m)
Sea-level pressure101.4 kPa (1014 mB, 29.94 in.Hg)
Remarks Automated weather observing station with precipitation discriminator
Flight conditions Visual Meteorological Conditions
Raw dataKORD 051351Z 16011KT 10SM FEW150 SCT250 07/M02 A2993 RMK AO2 SLP139 T00671017
An unhandled exception has occurred. See browser dev tools for details. Reload 🗙